Londonderry, United Kingdom
Current Conditions -  °F | °C
As of 12:20 PM on Saturday 25 Oct 2014 (Local Time) from EGAE Reporting Station
Rain Showers Rain Showers  
Wind Chill: 11°   Ceiling: 2500
Heat Index: 11°   Visibility: 6mi
Dew Point: 10°   Wind: 20mph
Humidity: 94%   Direction: 250°WSW
Pressure: 29.68"   Gusts: NA
Location:  54.99°N, 7.31°W
Report Text: EGAE 251120Z 25017KT 9000 -SHRA FEW018 BKN025 11/10 Q1005
Loading
Personal Weather Stations






























Interactive Weather Map
Tropical Storm Tracking
New forecast layout! Learn more

10-Day Weather Forecast

Advertisements
Track Severe Weather on mobile